This is the latest recevied weather packets stored in our database for station/object KC8UZG. If no packets are shown the sender has not sent any weather packets the latest 10 day(s).
| Time | Temp. | Humidity | Pressure | Rain* | Wind** | Luminosity | Snow |
|---|---|---|---|---|---|---|---|
| 1777321529 | 23.89° C | 64% | 1011.5 hPa | 0 mm | - | 29 W/m² | - |
| 1777320935 | 23.89° C | 64% | 1011.8 hPa | 0 mm | - | 41 W/m² | - |
| 1777320342 | 24.44° C | 62% | 1012 hPa | 0 mm | - | 58 W/m² | - |
| 1777319720 | 24.44° C | 61% | 1012.1 hPa | 0 mm | - | 81 W/m² | - |
| 1777319125 | 24.44° C | 61% | 1012.2 hPa | 0 mm | - | 103 W/m² | - |
| 1777318532 | 24.44° C | 60% | 1012.3 hPa | 0 mm | - | 124 W/m² | - |
| 1777317938 | 25° C | 59% | 1012.2 hPa | 0 mm | - | 152 W/m² | - |
| 1777317317 | 25° C | 59% | 1012.2 hPa | 0 mm | - | 173 W/m² | - |
| 1777316723 | 25.56° C | 61% | 1012.2 hPa | 0 mm | - | 237 W/m² | - |
| 1777316129 | 25.56° C | 62% | 1012.6 hPa | 0 mm | - | 284 W/m² | - |
| 1777315535 | 25° C | 62% | 1012.8 hPa | 0 mm | - | 212 W/m² | - |
| 1777314941 | 25° C | 64% | 1012.7 hPa | 0 mm | - | 184 W/m² | - |
| 1777314319 | 24.44° C | 65% | 1013.2 hPa | 0 mm | - | 147 W/m² | - |
| 1777313726 | 25° C | 64% | 1013.2 hPa | 0 mm | - | 189 W/m² | - |
| 1777313132 | 24.44° C | 66% | 1013.5 hPa | 0 mm | - | 230 W/m² | - |
| 1777312538 | 24.44° C | 66% | 1013.9 hPa | 0 mm | - | 251 W/m² | - |
| 1777311917 | 24.44° C | 67% | 1013.8 hPa | 0 mm | - | 262 W/m² | - |
| 1777311323 | 23.33° C | 68% | 1013.9 hPa | 0 mm | - | 189 W/m² | - |
| 1777310729 | 23.33° C | 67% | 1014 hPa | 0 mm | - | 175 W/m² | - |
| 1777310136 | 24.44° C | 65% | 1014.3 hPa | 0 mm | - | 222 W/m² | - |
| 1777309541 | 24.44° C | 66% | 1014.3 hPa | 0 mm | - | 281 W/m² | - |
| 1777308920 | 24.44° C | 66% | 1014.3 hPa | 0 mm | - | 364 W/m² | - |
| 1777308326 | 23.33° C | 69% | 1014.4 hPa | 0 mm | - | 358 W/m² | - |
| 1777307732 | 22.78° C | 69% | 1014.6 hPa | 0 mm | - | 283 W/m² | - |
| 1777307138 | 22.78° C | 71% | 1014.8 hPa | 0 mm | - | 277 W/m² | - |
* Rain latest hour (hover to see other rain measurements)
** Current wind speed in m/s (hover to see current wind gust speed)